createdAt,value
2023-03-10T00:01:21.020Z,6.35
2023-03-10T00:03:48.682Z,7.53
2023-03-10T00:06:17.793Z,6.90
2023-03-10T00:08:45.789Z,6.30
2023-03-10T00:11:13.694Z,6.75
2023-03-10T00:13:41.089Z,6.82
2023-03-10T00:16:08.915Z,6.53
2023-03-10T00:18:36.316Z,7.43
2023-03-10T00:21:03.753Z,7.20
2023-03-10T00:23:31.517Z,6.47
2023-03-10T00:26:00.707Z,6.75
2023-03-10T00:28:28.817Z,6.50
2023-03-10T00:31:00.910Z,6.35
2023-03-10T00:33:28.390Z,6.30
2023-03-10T00:36:15.642Z,5.55
2023-03-10T00:38:43.993Z,6.30
2023-03-10T00:41:12.468Z,6.00
2023-03-10T00:43:39.878Z,6.13
2023-03-10T00:46:07.485Z,5.95
2023-03-10T00:48:35.228Z,6.97
2023-03-10T00:51:02.520Z,6.03
2023-03-10T00:53:30.361Z,6.38
2023-03-10T00:55:59.898Z,6.32
2023-03-10T00:58:27.218Z,6.47
2023-03-10T01:00:54.908Z,6.15
2023-03-10T01:03:22.701Z,5.55
2023-03-10T01:05:50.613Z,5.32
2023-03-10T01:08:18.545Z,5.95
2023-03-10T01:10:46.330Z,5.15
2023-03-10T01:13:14.635Z,5.28
2023-03-10T01:15:44.463Z,5.43
2023-03-10T01:18:11.860Z,4.55
2023-03-10T01:20:41.667Z,5.53
2023-03-10T01:23:12.896Z,4.80
2023-03-10T01:25:40.268Z,4.40
2023-03-10T01:28:07.738Z,5.82
2023-03-10T01:30:35.253Z,4.13
2023-03-10T01:33:02.643Z,4.68
2023-03-10T01:35:31.054Z,4.20
2023-03-10T01:37:58.822Z,4.90
2023-03-10T01:40:26.946Z,4.95
2023-03-10T01:42:54.759Z,5.30
2023-03-10T01:45:42.029Z,5.60
2023-03-10T01:48:09.330Z,4.95
2023-03-10T01:50:36.861Z,4.97
2023-03-10T01:53:04.359Z,4.80
2023-03-10T01:55:33.055Z,5.50
2023-03-10T01:58:00.804Z,4.65
2023-03-10T02:00:29.559Z,5.82
2023-03-10T02:03:04.241Z,4.95
2023-03-10T02:05:32.336Z,5.70
2023-03-10T02:08:00.086Z,5.20
2023-03-10T02:10:27.798Z,5.68
2023-03-10T02:12:55.179Z,4.43
2023-03-10T02:15:22.549Z,4.85
2023-03-10T02:17:51.399Z,4.90
2023-03-10T02:20:41.078Z,5.43
2023-03-10T02:23:08.930Z,5.32
2023-03-10T02:25:47.659Z,5.07
2023-03-10T02:28:15.097Z,4.75
2023-03-10T02:30:44.453Z,5.45
2023-03-10T02:33:14.555Z,5.35
2023-03-10T02:35:42.139Z,6.68
2023-03-10T02:38:09.474Z,6.50
2023-03-10T02:40:40.371Z,6.70
2023-03-10T02:43:13.689Z,6.35
2023-03-10T02:45:43.512Z,5.55
2023-03-10T02:48:12.747Z,6.68
2023-03-10T02:50:42.092Z,6.50
2023-03-10T02:53:13.061Z,7.30
2023-03-10T02:55:40.809Z,6.93
2023-03-10T02:58:08.385Z,7.03
2023-03-10T03:00:38.717Z,6.70
2023-03-10T03:03:06.508Z,7.30
2023-03-10T03:05:34.422Z,6.97
2023-03-10T03:08:01.770Z,9.23
2023-03-10T03:10:29.382Z,8.18
2023-03-10T03:12:56.785Z,7.78
2023-03-10T03:15:24.413Z,7.15
2023-03-10T03:17:52.077Z,7.95
2023-03-10T03:20:19.528Z,8.30
2023-03-10T03:22:46.810Z,7.82
2023-03-10T03:25:15.133Z,7.38
2023-03-10T03:27:42.681Z,7.28
2023-03-10T03:30:14.193Z,7.63
2023-03-10T03:32:41.708Z,7.18
2023-03-10T03:35:10.817Z,7.32
2023-03-10T03:37:38.325Z,9.10
2023-03-10T03:40:13.476Z,8.02
2023-03-10T03:42:41.384Z,8.95
2023-03-10T03:45:09.504Z,9.32
2023-03-10T03:47:37.082Z,10.00
2023-03-10T03:50:04.882Z,10.07
2023-03-10T03:52:32.882Z,12.68
2023-03-10T03:55:00.237Z,13.77
2023-03-10T03:57:27.591Z,14.27
2023-03-10T03:59:54.989Z,14.23
2023-03-10T04:02:22.365Z,13.25
2023-03-10T04:04:49.741Z,14.48
2023-03-10T04:07:17.265Z,16.50
2023-03-10T04:09:44.619Z,15.93
2023-03-10T04:12:12.017Z,15.95
2023-03-10T04:14:39.495Z,14.18
2023-03-10T04:17:06.811Z,14.05
2023-03-10T04:19:34.170Z,16.23
2023-03-10T04:22:01.627Z,15.80
2023-03-10T04:24:28.964Z,15.15
2023-03-10T04:26:56.308Z,16.35
2023-03-10T04:29:24.636Z,17.42
2023-03-10T04:32:04.941Z,14.82
2023-03-10T04:34:33.445Z,15.90
2023-03-10T04:37:00.733Z,15.43
2023-03-10T04:39:28.113Z,16.83
2023-03-10T04:41:55.432Z,17.40
2023-03-10T04:44:30.941Z,17.27
2023-03-10T04:46:59.229Z,15.52
2023-03-10T04:49:27.024Z,17.90
2023-03-10T04:51:54.315Z,16.45
2023-03-10T04:54:21.672Z,16.45
2023-03-10T04:56:49.071Z,16.88
2023-03-10T04:59:16.397Z,17.35
2023-03-10T05:01:43.822Z,15.68
2023-03-10T05:04:11.394Z,16.30
2023-03-10T05:06:38.769Z,18.13
2023-03-10T05:09:06.152Z,15.80
2023-03-10T05:11:33.853Z,17.52
2023-03-10T05:14:01.601Z,17.60
2023-03-10T05:16:29.165Z,17.38
2023-03-10T05:18:56.533Z,17.92
2023-03-10T05:21:23.862Z,17.17
2023-03-10T05:23:51.268Z,17.38
2023-03-10T05:26:18.596Z,18.00
2023-03-10T05:28:45.946Z,17.58
2023-03-10T05:31:15.078Z,17.48
2023-03-10T05:33:42.666Z,17.85
2023-03-10T05:36:11.429Z,17.88
2023-03-10T05:38:38.991Z,18.35
2023-03-10T05:41:10.361Z,16.67
2023-03-10T05:43:38.543Z,16.98
2023-03-10T05:46:06.401Z,16.58
2023-03-10T05:48:33.784Z,19.55
2023-03-10T05:51:02.510Z,18.30
2023-03-10T05:53:30.225Z,16.60
2023-03-10T05:55:58.076Z,17.67
2023-03-10T05:58:25.743Z,16.70
2023-03-10T06:00:53.587Z,17.92
2023-03-10T06:03:23.340Z,17.20
2023-03-10T06:05:50.733Z,17.00
2023-03-10T06:08:18.177Z,17.85
2023-03-10T06:10:45.576Z,15.90
2023-03-10T06:13:12.983Z,17.60
2023-03-10T06:15:40.455Z,16.02
2023-03-10T06:18:07.792Z,14.52
2023-03-10T06:20:35.102Z,15.57
2023-03-10T06:23:02.437Z,15.05
2023-03-10T06:25:29.812Z,14.48
2023-03-10T06:27:57.122Z,15.55
2023-03-10T06:30:24.703Z,13.82
2023-03-10T06:32:52.133Z,14.63
2023-03-10T06:35:19.686Z,13.98
2023-03-10T06:37:47.043Z,13.05
2023-03-10T06:40:14.872Z,13.82
2023-03-10T06:42:42.764Z,14.75
2023-03-10T06:45:10.896Z,14.40
2023-03-10T06:47:38.191Z,13.27
2023-03-10T06:50:06.409Z,13.90
2023-03-10T06:52:34.721Z,12.75
2023-03-10T06:55:02.514Z,12.80
2023-03-10T06:57:29.921Z,14.05
2023-03-10T06:59:57.361Z,12.25
2023-03-10T07:02:24.729Z,12.27
2023-03-10T07:04:52.144Z,13.90
2023-03-10T07:07:19.473Z,14.32
2023-03-10T07:09:46.949Z,12.80
2023-03-10T07:12:14.336Z,12.27
2023-03-10T07:14:41.713Z,13.07
2023-03-10T07:17:09.168Z,13.75
2023-03-10T07:19:37.592Z,12.15
2023-03-10T07:22:04.938Z,12.05
2023-03-10T07:24:32.311Z,12.75
2023-03-10T07:27:00.525Z,13.00
2023-03-10T07:29:28.268Z,13.57
2023-03-10T07:31:55.917Z,12.68
2023-03-10T07:34:23.335Z,13.02
2023-03-10T07:36:50.722Z,13.60
2023-03-10T07:39:18.072Z,12.07
2023-03-10T07:41:45.381Z,13.05
2023-03-10T07:44:12.723Z,12.23
2023-03-10T07:46:40.248Z,13.35
2023-03-10T07:49:07.676Z,12.98
2023-03-10T07:51:35.746Z,14.07
2023-03-10T07:54:03.129Z,14.23
2023-03-10T07:56:30.577Z,12.68
2023-03-10T07:58:59.930Z,12.63
2023-03-10T08:01:27.241Z,12.43
2023-03-10T08:03:57.804Z,17.65
2023-03-10T08:06:26.705Z,21.77
2023-03-10T08:08:55.849Z,14.63
2023-03-10T08:11:23.556Z,13.82
2023-03-10T08:13:51.001Z,18.60
2023-03-10T08:16:19.682Z,15.10
2023-03-10T08:18:47.098Z,12.73
2023-03-10T08:21:14.452Z,12.73
2023-03-10T08:23:41.760Z,15.57
2023-03-10T08:26:11.578Z,15.35
2023-03-10T08:28:39.168Z,14.10
2023-03-10T08:31:09.647Z,13.85
2023-03-10T08:33:37.546Z,13.07
2023-03-10T08:36:07.577Z,13.70
2023-03-10T08:38:35.059Z,12.63
2023-03-10T08:41:22.754Z,14.02
2023-03-10T08:43:50.582Z,13.02
2023-03-10T08:46:18.629Z,12.20
2023-03-10T08:48:46.068Z,12.63
2023-03-10T08:51:15.795Z,11.40
2023-03-10T08:53:44.637Z,10.75
2023-03-10T08:56:12.018Z,11.18
2023-03-10T08:58:39.577Z,11.52
2023-03-10T09:01:06.980Z,11.43
2023-03-10T09:03:38.417Z,10.52
2023-03-10T09:06:06.109Z,11.85
2023-03-10T09:08:33.461Z,11.95
2023-03-10T09:11:01.436Z,10.88
2023-03-10T09:13:28.833Z,10.45
2023-03-10T09:15:56.343Z,10.57
2023-03-10T09:18:23.781Z,10.90
2023-03-10T09:20:51.499Z,9.65
2023-03-10T09:23:19.004Z,10.48
2023-03-10T09:25:46.428Z,9.65
2023-03-10T09:28:13.939Z,9.80
2023-03-10T09:30:43.083Z,8.95
2023-03-10T09:33:19.474Z,9.85
2023-03-10T09:35:53.013Z,8.80
2023-03-10T09:38:30.380Z,8.65
2023-03-10T09:41:18.972Z,8.85
2023-03-10T09:43:50.913Z,8.55
2023-03-10T09:47:08.642Z,8.73
2023-03-10T09:49:55.956Z,8.95
2023-03-10T09:52:28.105Z,8.25
2023-03-10T09:54:58.621Z,8.55
2023-03-10T09:57:26.057Z,8.88
2023-03-10T09:59:56.420Z,8.52
2023-03-10T10:02:27.585Z,8.32
2023-03-10T10:04:58.007Z,9.18
2023-03-10T10:07:27.077Z,8.57
2023-03-10T10:10:14.268Z,8.35
2023-03-10T10:12:43.542Z,8.00
2023-03-10T10:15:21.467Z,8.25
2023-03-10T10:18:15.835Z,8.60
2023-03-10T10:21:04.926Z,6.30
2023-03-10T10:23:52.386Z,7.70
2023-03-10T10:26:21.209Z,8.27
2023-03-10T10:29:08.409Z,7.47
2023-03-10T10:31:36.302Z,7.50
2023-03-10T10:34:06.438Z,7.50
2023-03-10T10:36:35.378Z,6.70
2023-03-10T10:39:04.677Z,6.90
2023-03-10T10:41:33.693Z,6.90
2023-03-10T10:44:09.650Z,7.07
2023-03-10T10:46:37.208Z,7.00
2023-03-10T10:49:24.527Z,6.80
2023-03-10T10:52:11.736Z,5.72
2023-03-10T10:54:40.201Z,6.22
2023-03-10T10:57:18.239Z,6.00
2023-03-10T10:59:45.804Z,6.10
2023-03-10T11:02:33.452Z,6.60
2023-03-10T11:05:09.048Z,5.90
2023-03-10T11:07:36.509Z,6.40
2023-03-10T11:10:07.398Z,5.75
2023-03-10T11:12:39.145Z,5.72
2023-03-10T11:15:20.513Z,6.00
2023-03-10T11:17:51.079Z,5.90
2023-03-10T11:20:39.230Z,5.75
2023-03-10T11:23:26.817Z,5.55
2023-03-10T11:25:59.524Z,5.97
2023-03-10T11:28:46.771Z,4.95
2023-03-10T11:31:23.362Z,5.00
2023-03-10T11:34:10.611Z,5.25
2023-03-10T11:36:55.069Z,5.20
2023-03-10T11:39:43.952Z,5.18
2023-03-10T11:42:31.157Z,5.90
2023-03-10T11:45:18.391Z,6.15
2023-03-10T11:47:51.985Z,5.50
2023-03-10T11:50:39.254Z,5.55
2023-03-10T11:53:12.119Z,5.60
2023-03-10T11:55:40.244Z,6.05
2023-03-10T11:58:10.794Z,4.90
2023-03-10T12:00:40.869Z,4.78
2023-03-10T12:03:30.616Z,4.43
2023-03-10T12:05:59.800Z,4.65
2023-03-10T12:08:30.374Z,4.90
2023-03-10T12:11:00.518Z,5.20
2023-03-10T12:13:30.830Z,5.47
2023-03-10T12:16:00.435Z,5.32
2023-03-10T12:18:28.318Z,4.60
2023-03-10T12:21:15.565Z,5.57
2023-03-10T12:23:43.779Z,5.00
2023-03-10T12:26:11.227Z,5.30
2023-03-10T12:28:38.576Z,4.82
2023-03-10T12:31:42.890Z,4.97
2023-03-10T12:34:14.896Z,5.07
2023-03-10T12:36:44.349Z,4.75
2023-03-10T12:39:31.903Z,5.80
2023-03-10T12:42:19.065Z,5.93
2023-03-10T12:45:06.262Z,5.25
2023-03-10T12:47:38.136Z,5.05
2023-03-10T12:50:24.537Z,6.30
2023-03-10T12:52:55.194Z,5.00
2023-03-10T12:55:26.709Z,5.78
2023-03-10T12:58:13.875Z,4.85
2023-03-10T13:01:35.146Z,5.72
2023-03-10T13:04:07.124Z,5.38
2023-03-10T13:06:36.519Z,4.75
2023-03-10T13:09:21.938Z,5.63
2023-03-10T13:11:53.365Z,5.20
2023-03-10T13:14:22.232Z,5.45
2023-03-10T13:17:05.312Z,5.47
2023-03-10T13:19:34.055Z,4.95
2023-03-10T13:22:01.949Z,5.65
2023-03-10T13:24:31.233Z,5.30
2023-03-10T13:27:15.975Z,5.68
2023-03-10T13:30:04.244Z,4.95
2023-03-10T13:32:34.743Z,5.20
2023-03-10T13:35:13.764Z,5.63
2023-03-10T13:37:42.161Z,5.20
2023-03-10T13:40:11.583Z,4.82
2023-03-10T13:42:44.239Z,5.10
2023-03-10T13:45:34.546Z,6.22
2023-03-10T13:48:05.500Z,4.88
2023-03-10T13:50:33.948Z,5.93
2023-03-10T13:53:02.276Z,5.35
2023-03-10T13:55:30.385Z,5.82
2023-03-10T13:57:59.501Z,5.60
2023-03-10T14:00:27.362Z,5.75
2023-03-10T14:02:54.822Z,5.47
2023-03-10T14:05:42.041Z,5.72
2023-03-10T14:08:31.096Z,8.70
2023-03-10T14:11:18.293Z,6.97
2023-03-10T14:13:46.012Z,7.00
2023-03-10T14:16:13.356Z,6.20
2023-03-10T14:18:41.733Z,6.18
2023-03-10T14:21:28.976Z,6.57
2023-03-10T14:23:57.395Z,6.00
2023-03-10T14:26:25.101Z,6.63
2023-03-10T14:28:52.367Z,7.15
2023-03-10T14:31:22.143Z,6.15
2023-03-10T14:33:50.114Z,6.95
2023-03-10T14:36:17.664Z,6.78
2023-03-10T14:38:46.194Z,5.93
2023-03-10T14:41:14.429Z,5.25
2023-03-10T14:43:42.331Z,6.60
2023-03-10T14:46:11.775Z,6.13
2023-03-10T14:48:42.005Z,6.85
2023-03-10T14:51:32.565Z,6.07
2023-03-10T14:54:02.198Z,5.90
2023-03-10T14:56:29.705Z,6.47
2023-03-10T14:58:58.399Z,6.85
2023-03-10T15:01:25.974Z,6.07
2023-03-10T15:03:53.353Z,7.18
2023-03-10T15:06:21.196Z,6.50
2023-03-10T15:08:48.652Z,6.43
2023-03-10T15:11:24.046Z,6.38
2023-03-10T15:13:58.337Z,6.90
2023-03-10T15:16:25.851Z,7.20
2023-03-10T15:18:54.014Z,6.78
2023-03-10T15:21:21.355Z,7.15
2023-03-10T15:23:48.745Z,7.20
2023-03-10T15:26:16.191Z,6.43
2023-03-10T15:28:43.558Z,7.63
2023-03-10T15:31:10.933Z,6.90
2023-03-10T15:33:38.560Z,7.28
2023-03-10T15:36:07.058Z,6.68
2023-03-10T15:38:34.491Z,7.20
2023-03-10T15:41:01.909Z,6.82
2023-03-10T15:43:29.313Z,6.97
2023-03-10T15:45:56.688Z,6.88
2023-03-10T15:48:24.137Z,7.90
2023-03-10T15:50:51.545Z,7.65
2023-03-10T15:53:18.941Z,7.13
2023-03-10T15:55:46.276Z,7.70
2023-03-10T15:58:13.753Z,6.45
2023-03-10T16:00:43.874Z,7.35
2023-03-10T16:03:11.840Z,8.18
2023-03-10T16:05:39.347Z,8.70
2023-03-10T16:08:06.812Z,12.60
2023-03-10T16:10:35.762Z,9.85
2023-03-10T16:13:03.252Z,7.38
2023-03-10T16:15:30.663Z,8.07
2023-03-10T16:17:58.212Z,8.60
2023-03-10T16:20:25.612Z,9.75
2023-03-10T16:22:52.981Z,9.07
2023-03-10T16:25:21.614Z,7.75
2023-03-10T16:27:49.158Z,8.20
2023-03-10T16:30:17.815Z,8.95
2023-03-10T16:32:46.534Z,10.65
2023-03-10T16:35:14.042Z,8.93
2023-03-10T16:37:41.558Z,8.50
2023-03-10T16:40:09.703Z,8.80
2023-03-10T16:42:37.094Z,9.00
2023-03-10T16:45:05.425Z,8.55
2023-03-10T16:47:33.145Z,7.50
2023-03-10T16:50:00.562Z,7.70
2023-03-10T16:52:27.952Z,9.82
2023-03-10T16:55:00.802Z,7.95
2023-03-10T16:57:28.460Z,7.40
2023-03-10T16:59:55.853Z,8.45
2023-03-10T17:02:23.253Z,7.97
2023-03-10T17:04:50.610Z,7.90
2023-03-10T17:07:19.319Z,8.10
2023-03-10T17:09:46.749Z,7.60
2023-03-10T17:12:14.534Z,7.50
2023-03-10T17:14:43.982Z,8.52
2023-03-10T17:17:11.446Z,11.90
2023-03-10T17:19:39.001Z,18.27
2023-03-10T17:22:06.386Z,18.98
2023-03-10T17:24:33.726Z,14.07
2023-03-10T17:27:01.214Z,14.90
2023-03-10T17:29:28.677Z,10.30
2023-03-10T17:31:57.316Z,13.70
2023-03-10T17:34:24.756Z,12.20
2023-03-10T17:36:52.249Z,12.45
2023-03-10T17:39:21.253Z,12.30
